createdAt,value
2023-03-05T00:01:18.058Z,9.70
2023-03-05T00:03:49.785Z,9.48
2023-03-05T00:06:26.944Z,9.63
2023-03-05T00:08:58.351Z,9.63
2023-03-05T00:11:36.416Z,9.90
2023-03-05T00:14:06.587Z,9.13
2023-03-05T00:16:33.976Z,10.63
2023-03-05T00:19:01.601Z,9.70
2023-03-05T00:21:34.115Z,10.48
2023-03-05T00:24:05.273Z,11.38
2023-03-05T00:26:34.335Z,11.65
2023-03-05T00:29:01.087Z,14.70
2023-03-05T00:31:35.390Z,17.27
2023-03-05T00:34:08.301Z,21.88
2023-03-05T00:36:39.304Z,19.08
2023-03-05T00:39:13.783Z,19.98
2023-03-05T00:41:40.740Z,20.23
2023-03-05T00:44:07.436Z,28.05
2023-03-05T00:46:49.322Z,19.63
2023-03-05T00:49:16.141Z,17.25
2023-03-05T00:51:42.882Z,22.42
2023-03-05T00:54:35.137Z,20.10
2023-03-05T00:57:03.334Z,24.13
2023-03-05T00:59:29.948Z,25.55
2023-03-05T01:01:56.669Z,20.00
2023-03-05T01:04:28.948Z,15.32
2023-03-05T01:09:22.139Z,10.02
2023-03-05T01:11:48.772Z,10.20
2023-03-05T01:14:18.577Z,11.13
2023-03-05T01:16:45.323Z,10.43
2023-03-05T01:19:12.795Z,10.20
2023-03-05T01:21:42.421Z,9.93
2023-03-05T01:24:15.007Z,9.32
2023-03-05T01:26:41.705Z,9.48
2023-03-05T01:29:08.386Z,9.05
2023-03-05T01:31:35.225Z,10.88
2023-03-05T01:34:02.457Z,9.55
2023-03-05T01:36:29.162Z,10.73
2023-03-05T01:38:55.903Z,9.52
2023-03-05T01:41:22.584Z,10.45
2023-03-05T01:43:49.448Z,11.40
2023-03-05T01:46:38.662Z,11.10
2023-03-05T01:49:20.228Z,10.35
2023-03-05T01:52:02.890Z,10.57
2023-03-05T01:54:55.798Z,10.30
2023-03-05T01:57:31.096Z,8.40
2023-03-05T02:00:01.984Z,9.93
2023-03-05T02:02:29.419Z,10.10
2023-03-05T02:05:02.462Z,9.63
2023-03-05T02:07:31.100Z,9.88
2023-03-05T02:09:57.863Z,9.60
2023-03-05T02:12:24.675Z,9.60
2023-03-05T02:14:58.981Z,10.25
2023-03-05T02:17:27.777Z,8.60
2023-03-05T02:20:02.993Z,10.43
2023-03-05T02:22:29.671Z,9.13
2023-03-05T02:24:56.293Z,10.40
2023-03-05T02:27:34.708Z,9.60
2023-03-05T02:30:02.600Z,9.23
2023-03-05T02:32:29.461Z,10.05
2023-03-05T02:35:20.141Z,10.32
2023-03-05T02:37:47.005Z,9.95
2023-03-05T02:40:14.176Z,11.20
2023-03-05T02:42:41.400Z,11.55
2023-03-05T02:45:09.323Z,9.05
2023-03-05T02:47:35.930Z,10.65
2023-03-05T02:50:03.312Z,10.25
2023-03-05T02:52:31.215Z,11.00
2023-03-05T02:54:57.924Z,8.73
2023-03-05T02:57:24.759Z,9.98
2023-03-05T02:59:51.909Z,10.93
2023-03-05T03:02:18.603Z,9.18
2023-03-05T03:04:45.551Z,9.88
2023-03-05T03:07:13.338Z,9.50
2023-03-05T03:09:48.597Z,11.40
2023-03-05T03:12:26.262Z,9.85
2023-03-05T03:14:55.584Z,10.23
2023-03-05T03:17:26.858Z,10.35
2023-03-05T03:20:12.085Z,9.15
2023-03-05T03:22:53.740Z,9.93
2023-03-05T03:25:22.928Z,10.20
2023-03-05T03:27:49.627Z,10.02
2023-03-05T03:30:16.737Z,9.55
2023-03-05T03:32:43.814Z,8.88
2023-03-05T03:35:16.776Z,10.45
2023-03-05T03:37:50.355Z,10.65
2023-03-05T03:40:24.122Z,10.68
2023-03-05T03:42:54.440Z,11.55
2023-03-05T03:45:22.232Z,11.82
2023-03-05T03:48:01.514Z,9.45
2023-03-05T03:50:37.482Z,11.57
2023-03-05T03:53:09.619Z,9.70
2023-03-05T03:55:36.298Z,10.40
2023-03-05T03:58:03.350Z,9.77
2023-03-05T04:00:34.512Z,12.55
2023-03-05T04:03:09.278Z,10.48
2023-03-05T04:05:53.473Z,11.00
2023-03-05T04:08:20.179Z,10.40
2023-03-05T04:10:46.866Z,10.77
2023-03-05T04:13:19.110Z,11.02
2023-03-05T04:15:59.208Z,11.00
2023-03-05T04:18:28.539Z,11.52
2023-03-05T04:21:00.321Z,10.85
2023-03-05T04:23:32.190Z,12.20
2023-03-05T04:26:04.040Z,10.57
2023-03-05T04:28:31.236Z,11.23
2023-03-05T04:30:58.234Z,12.90
2023-03-05T04:33:25.187Z,10.65
2023-03-05T04:35:56.989Z,11.38
2023-03-05T04:38:23.791Z,10.43
2023-03-05T04:41:05.044Z,11.82
2023-03-05T04:43:31.709Z,11.00
2023-03-05T04:45:58.387Z,9.82
2023-03-05T04:48:43.467Z,11.05
2023-03-05T04:51:34.714Z,12.20
2023-03-05T04:54:01.379Z,11.93
2023-03-05T04:56:28.024Z,14.15
2023-03-05T04:58:57.973Z,11.48
2023-03-05T05:01:27.704Z,11.75
2023-03-05T05:03:57.446Z,13.65
2023-03-05T05:06:36.925Z,13.60
2023-03-05T05:09:03.809Z,12.18
2023-03-05T05:11:30.413Z,12.20
2023-03-05T05:13:57.183Z,13.68
2023-03-05T05:16:24.088Z,11.10
2023-03-05T05:19:05.244Z,11.45
2023-03-05T05:21:42.017Z,11.65
2023-03-05T05:24:08.692Z,13.68
2023-03-05T05:26:35.694Z,11.13
2023-03-05T05:29:02.378Z,12.10
2023-03-05T05:31:29.033Z,12.32
2023-03-05T05:33:55.706Z,12.70
2023-03-05T05:36:22.803Z,13.73
2023-03-05T05:41:33.354Z,17.17
2023-03-05T05:44:00.041Z,15.88
2023-03-05T05:46:29.866Z,14.55
2023-03-05T05:48:56.532Z,12.15
2023-03-05T05:51:23.885Z,14.52
2023-03-05T05:54:06.046Z,12.05
2023-03-05T05:56:45.064Z,12.75
2023-03-05T05:59:11.887Z,12.55
2023-03-05T06:01:38.589Z,12.57
2023-03-05T06:04:08.725Z,13.68
2023-03-05T06:06:41.150Z,13.52
2023-03-05T06:09:07.805Z,13.73
2023-03-05T06:11:34.538Z,13.80
2023-03-05T06:14:03.800Z,12.05
2023-03-05T06:16:36.651Z,14.38
2023-03-05T06:19:06.395Z,13.18
2023-03-05T06:21:33.468Z,13.98
2023-03-05T06:24:00.145Z,12.85
2023-03-05T06:26:26.963Z,13.77
2023-03-05T06:28:54.067Z,14.88
2023-03-05T06:31:23.414Z,13.52
2023-03-05T06:34:06.380Z,15.02
2023-03-05T06:36:33.077Z,13.20
2023-03-05T06:38:59.826Z,12.15
2023-03-05T06:41:29.389Z,14.25
2023-03-05T06:43:56.980Z,12.75
2023-03-05T06:46:28.879Z,14.35
2023-03-05T06:48:57.924Z,13.90
2023-03-05T06:51:28.446Z,13.85
2023-03-05T06:53:56.684Z,12.38
2023-03-05T06:56:23.513Z,12.85
2023-03-05T06:58:51.895Z,17.15
2023-03-05T07:01:20.543Z,19.08
2023-03-05T07:03:52.562Z,15.93
2023-03-05T07:06:19.951Z,17.33
2023-03-05T07:08:47.068Z,18.98
2023-03-05T07:11:16.685Z,15.13
2023-03-05T07:13:43.839Z,17.48
2023-03-05T07:16:15.586Z,18.77
2023-03-05T07:18:42.531Z,22.63
2023-03-05T07:21:12.877Z,16.92
2023-03-05T07:23:39.638Z,23.67
2023-03-05T07:26:06.967Z,21.88
2023-03-05T07:28:34.496Z,13.75
2023-03-05T07:31:04.557Z,12.73
2023-03-05T07:33:32.180Z,14.30
2023-03-05T07:35:59.026Z,12.75
2023-03-05T07:38:25.698Z,11.70
2023-03-05T07:40:52.393Z,13.05
2023-03-05T07:43:19.326Z,13.30
2023-03-05T07:45:46.632Z,18.23
2023-03-05T07:48:16.143Z,13.35
2023-03-05T07:50:43.678Z,13.50
2023-03-05T07:53:21.035Z,14.30
2023-03-05T07:55:48.218Z,19.55
2023-03-05T07:58:14.950Z,19.80
2023-03-05T08:00:44.686Z,14.60
2023-03-05T08:03:14.409Z,13.90
2023-03-05T08:05:41.445Z,11.32
2023-03-05T08:08:08.787Z,15.20
2023-03-05T08:10:36.642Z,12.05
2023-03-05T08:13:03.700Z,11.68
2023-03-05T08:15:36.261Z,12.57
2023-03-05T08:18:06.798Z,12.95
2023-03-05T08:20:36.374Z,10.57
2023-03-05T08:23:03.801Z,11.13
2023-03-05T08:25:31.649Z,11.27
2023-03-05T08:28:03.367Z,11.27
2023-03-05T08:30:32.037Z,11.57
2023-03-05T08:32:58.713Z,20.02
2023-03-05T08:35:25.566Z,11.73
2023-03-05T08:37:52.292Z,13.70
2023-03-05T08:40:19.324Z,11.77
2023-03-05T08:42:56.935Z,11.20
2023-03-05T08:45:23.738Z,11.35
2023-03-05T08:47:50.377Z,13.25
2023-03-05T08:50:18.237Z,26.95
2023-03-05T08:52:44.941Z,25.45
2023-03-05T08:55:12.739Z,14.13
2023-03-05T08:57:39.510Z,15.93
2023-03-05T09:00:07.417Z,13.13
2023-03-05T09:02:34.133Z,11.95
2023-03-05T09:05:00.833Z,13.30
2023-03-05T09:07:27.545Z,13.02
2023-03-05T09:09:54.203Z,12.35
2023-03-05T09:12:20.936Z,11.77
2023-03-05T09:14:50.459Z,12.45
2023-03-05T09:17:18.315Z,12.57
2023-03-05T09:19:44.979Z,11.23
2023-03-05T09:22:11.726Z,11.73
2023-03-05T09:24:38.613Z,12.95
2023-03-05T09:27:09.228Z,14.02
2023-03-05T09:29:35.899Z,11.68
2023-03-05T09:32:02.830Z,11.95
2023-03-05T09:37:18.701Z,12.90
2023-03-05T09:39:45.383Z,12.82
2023-03-05T09:42:12.046Z,12.52
2023-03-05T09:45:00.302Z,13.60
2023-03-05T09:47:45.370Z,13.18
2023-03-05T09:50:31.709Z,14.68
2023-03-05T09:53:12.350Z,12.23
2023-03-05T09:56:24.509Z,15.10
2023-03-05T09:58:56.149Z,15.20
2023-03-05T10:01:38.690Z,14.20
2023-03-05T10:06:56.589Z,11.73
2023-03-05T10:10:06.050Z,13.77
2023-03-05T10:12:42.879Z,13.35
2023-03-05T10:15:15.988Z,13.25
2023-03-05T10:18:28.939Z,13.85
2023-03-05T10:21:03.604Z,12.18
2023-03-05T10:23:42.208Z,14.52
2023-03-05T10:26:14.575Z,13.60
2023-03-05T10:32:01.311Z,16.35
2023-03-05T10:34:58.368Z,14.02
2023-03-05T10:37:50.919Z,13.73
2023-03-05T10:40:30.001Z,13.98
2023-03-05T10:43:22.348Z,15.73
2023-03-05T10:45:52.515Z,17.55
2023-03-05T10:48:34.495Z,19.00
2023-03-05T10:51:12.296Z,18.80
2023-03-05T10:53:51.110Z,16.35
2023-03-05T10:56:38.509Z,15.57
2023-03-05T10:59:10.249Z,17.38
2023-03-05T11:01:37.590Z,16.92
2023-03-05T11:04:31.780Z,16.10
2023-03-05T11:06:58.500Z,17.00
2023-03-05T11:09:33.720Z,17.02
2023-03-05T11:12:16.900Z,16.75
2023-03-05T11:14:46.864Z,20.42
2023-03-05T11:17:48.924Z,18.35
2023-03-05T11:20:27.366Z,15.00
2023-03-05T11:23:10.013Z,15.43
2023-03-05T11:25:54.172Z,17.17
2023-03-05T11:28:34.084Z,17.23
2023-03-05T11:31:08.043Z,15.45
2023-03-05T11:33:36.741Z,15.02
2023-03-05T11:36:13.721Z,14.48
2023-03-05T11:38:55.428Z,16.63
2023-03-05T11:41:41.813Z,15.80
2023-03-05T11:44:25.960Z,14.82
2023-03-05T11:47:24.314Z,15.35
2023-03-05T11:49:59.228Z,14.50
2023-03-05T11:52:32.212Z,17.48
2023-03-05T11:55:28.046Z,14.95
2023-03-05T11:58:19.026Z,14.35
2023-03-05T12:00:47.127Z,14.25
2023-03-05T12:03:22.225Z,15.13
2023-03-05T12:05:56.018Z,13.85
2023-03-05T12:08:29.130Z,13.73
2023-03-05T12:10:56.679Z,13.82
2023-03-05T12:13:45.522Z,14.68
2023-03-05T12:16:53.844Z,13.43
2023-03-05T12:19:40.500Z,13.00
2023-03-05T12:22:22.939Z,14.15
2023-03-05T12:24:51.187Z,14.68
2023-03-05T12:27:36.720Z,20.77
2023-03-05T12:30:05.146Z,16.20
2023-03-05T12:32:32.003Z,13.88
2023-03-05T12:35:05.920Z,17.85
2023-03-05T12:37:32.490Z,15.60
2023-03-05T12:40:04.287Z,15.60
2023-03-05T12:42:31.468Z,14.52
2023-03-05T12:45:10.235Z,14.07
2023-03-05T12:47:40.240Z,18.27
2023-03-05T12:50:29.187Z,17.30
2023-03-05T12:53:14.582Z,16.60
2023-03-05T12:55:46.691Z,16.23
2023-03-05T12:58:29.649Z,15.32
2023-03-05T13:01:10.823Z,15.30
2023-03-05T13:03:45.537Z,17.77
2023-03-05T13:06:35.864Z,16.35
2023-03-05T13:09:08.968Z,15.70
2023-03-05T13:11:39.072Z,14.65
2023-03-05T13:14:28.573Z,14.30
2023-03-05T13:16:55.609Z,16.30
2023-03-05T13:19:23.060Z,15.93
2023-03-05T13:22:01.272Z,18.80
2023-03-05T13:24:29.200Z,15.88
2023-03-05T13:26:56.535Z,16.40
2023-03-05T13:29:30.554Z,15.68
2023-03-05T13:32:33.677Z,17.15
2023-03-05T13:35:01.308Z,17.85
2023-03-05T13:37:34.418Z,16.58
2023-03-05T13:40:19.207Z,17.20
2023-03-05T13:42:46.166Z,17.30
2023-03-05T13:45:21.680Z,17.60
2023-03-05T13:48:00.750Z,19.08
2023-03-05T13:50:40.908Z,19.27
2023-03-05T13:53:19.340Z,18.40
2023-03-05T13:55:49.305Z,17.67
2023-03-05T13:58:41.302Z,22.33
2023-03-05T14:01:34.104Z,18.10
2023-03-05T14:04:17.704Z,18.08
2023-03-05T14:07:28.097Z,17.73
2023-03-05T14:09:56.676Z,17.63
2023-03-05T14:12:40.808Z,17.02
2023-03-05T14:15:28.853Z,19.67
2023-03-05T14:18:28.036Z,17.73
2023-03-05T14:21:11.324Z,16.45
2023-03-05T14:23:46.798Z,18.05
2023-03-05T14:26:31.659Z,17.63
2023-03-05T14:29:10.679Z,16.42
2023-03-05T14:31:48.152Z,18.42
2023-03-05T14:34:28.500Z,17.00
2023-03-05T14:36:58.669Z,15.43
2023-03-05T14:39:34.917Z,15.18
2023-03-05T14:42:28.247Z,20.08
2023-03-05T14:44:56.295Z,15.73
2023-03-05T14:47:23.946Z,18.08
2023-03-05T14:49:50.716Z,17.70
2023-03-05T14:52:19.680Z,16.27
2023-03-05T14:54:47.197Z,17.10
2023-03-05T14:57:21.112Z,19.30
2023-03-05T14:59:48.021Z,14.70
2023-03-05T15:02:20.966Z,17.73
2023-03-05T15:04:48.278Z,16.75
2023-03-05T15:07:22.481Z,17.15
2023-03-05T15:09:49.221Z,18.88
2023-03-05T15:12:17.444Z,17.30
2023-03-05T15:14:44.275Z,18.13
2023-03-05T15:17:16.786Z,17.13
2023-03-05T15:19:43.690Z,20.20
2023-03-05T15:22:12.336Z,17.13
2023-03-05T15:24:39.083Z,20.67
2023-03-05T15:27:06.310Z,19.85
2023-03-05T15:29:38.725Z,17.48
2023-03-05T15:32:05.677Z,17.52
2023-03-05T15:34:33.835Z,17.83
2023-03-05T15:37:01.867Z,18.33
2023-03-05T15:39:28.706Z,16.98
2023-03-05T15:41:55.985Z,17.00
2023-03-05T15:44:23.206Z,17.98
2023-03-05T15:46:49.947Z,18.15
2023-03-05T15:49:17.074Z,20.67
2023-03-05T15:51:43.899Z,16.50
2023-03-05T15:54:10.975Z,14.75
2023-03-05T15:56:37.885Z,13.55
2023-03-05T15:59:05.102Z,14.40
2023-03-05T16:01:31.892Z,18.98
2023-03-05T16:03:58.593Z,14.25
2023-03-05T16:06:27.022Z,14.05
2023-03-05T16:08:59.200Z,20.38
2023-03-05T16:11:27.131Z,18.90
2023-03-05T16:13:54.142Z,14.80
2023-03-05T16:16:23.518Z,14.13
2023-03-05T16:18:50.429Z,13.63
2023-03-05T16:21:17.403Z,11.95
2023-03-05T16:23:44.305Z,9.60
2023-03-05T16:26:11.423Z,9.77
2023-03-05T16:28:38.213Z,11.20
2023-03-05T16:31:07.482Z,9.55
2023-03-05T16:33:34.241Z,10.15
2023-03-05T16:36:26.226Z,10.45
2023-03-05T16:38:55.082Z,10.15
2023-03-05T16:41:29.227Z,10.35
2023-03-05T16:43:56.540Z,9.77
2023-03-05T16:46:29.308Z,12.63
2023-03-05T16:48:56.566Z,11.88
2023-03-05T16:51:23.874Z,11.82
2023-03-05T16:53:50.876Z,10.82
2023-03-05T16:56:17.868Z,16.27
2023-03-05T16:58:44.508Z,14.90
2023-03-05T17:01:14.228Z,11.18
2023-03-05T17:03:41.630Z,11.23
2023-03-05T17:06:10.713Z,9.23
2023-03-05T17:08:37.430Z,11.60
2023-03-05T17:11:04.279Z,9.73
2023-03-05T17:13:30.937Z,10.93
2023-03-05T17:15:57.825Z,10.57
2023-03-05T17:18:24.659Z,17.25
2023-03-05T17:20:51.612Z,12.95
2023-03-05T17:23:18.299Z,14.80
2023-03-05T17:25:45.024Z,14.00
2023-03-05T17:28:11.743Z,12.95
2023-03-05T17:30:38.879Z,13.05
2023-03-05T17:33:06.160Z,15.77
2023-03-05T17:35:34.004Z,17.02
2023-03-05T17:38:07.396Z,12.43
2023-03-05T17:40:34.604Z,13.68
2023-03-05T17:43:01.377Z,11.30
2023-03-05T17:45:28.180Z,12.48
2023-03-05T17:47:55.893Z,10.98
2023-03-05T17:50:23.424Z,11.60
2023-03-05T17:52:53.104Z,12.55
2023-03-05T17:55:20.212Z,11.77
2023-03-05T17:57:47.838Z,11.20
2023-03-05T18:00:17.166Z,9.88
2023-03-05T18:02:44.324Z,10.25
2023-03-05T18:05:11.874Z,11.10
2023-03-05T18:07:38.752Z,11.27
2023-03-05T18:10:08.122Z,10.32
2023-03-05T18:12:35.147Z,10.60
2023-03-05T18:15:02.614Z,10.02
2023-03-05T18:17:29.323Z,9.77
2023-03-05T18:19:56.097Z,9.90
2023-03-05T18:22:23.299Z,10.85
2023-03-05T18:24:50.080Z,12.35
2023-03-05T18:27:16.820Z,12.93
2023-03-05T18:29:43.547Z,13.25
2023-03-05T18:32:10.447Z,12.32
2023-03-05T18:34:37.225Z,10.85
2023-03-05T18:37:03.999Z,13.13
2023-03-05T18:39:33.390Z,11.40
2023-03-05T18:42:00.457Z,11.85
2023-03-05T18:44:27.197Z,10.90
2023-03-05T18:46:54.016Z,9.63
2023-03-05T18:49:20.783Z,10.48
2023-03-05T18:51:47.734Z,10.18
2023-03-05T18:54:14.441Z,10.20
2023-03-05T18:56:41.122Z,11.60
2023-03-05T18:59:07.941Z,11.13
2023-03-05T19:01:34.771Z,11.55
2023-03-05T19:04:01.532Z,13.10
2023-03-05T19:06:28.434Z,13.88
2023-03-05T19:08:58.530Z,16.00
2023-03-05T19:11:25.220Z,12.52
2023-03-05T19:13:52.305Z,17.55
2023-03-05T19:16:23.910Z,13.35
2023-03-05T19:19:16.465Z,12.65
2023-03-05T19:24:12.446Z,12.13
2023-03-05T19:26:40.070Z,11.10
2023-03-05T19:29:07.590Z,11.85
2023-03-05T19:31:34.513Z,10.88
2023-03-05T19:34:01.740Z,10.57
2023-03-05T19:36:28.738Z,11.70
2023-03-05T19:38:55.728Z,11.48
2023-03-05T19:41:22.415Z,11.98
2023-03-05T19:43:52.192Z,14.75
2023-03-05T19:46:19.143Z,17.10
2023-03-05T19:48:46.448Z,14.20
2023-03-05T19:51:16.473Z,14.40
2023-03-05T19:53:43.500Z,15.15
2023-03-05T19:56:11.163Z,14.10
2023-03-05T19:58:38.539Z,19.38
2023-03-05T20:01:11.034Z,15.52
2023-03-05T20:03:38.495Z,16.33
2023-03-05T20:06:06.525Z,18.23
2023-03-05T20:08:33.869Z,12.88
2023-03-05T20:11:01.334Z,11.82
2023-03-05T20:13:28.652Z,12.70
2023-03-05T20:15:55.530Z,15.50
2023-03-05T20:18:22.294Z,17.17
2023-03-05T20:21:01.920Z,24.25
2023-03-05T20:23:29.234Z,21.55
2023-03-05T20:25:56.665Z,48.35
2023-03-05T20:28:29.787Z,13.95
2023-03-05T20:30:59.064Z,13.13
2023-03-05T20:33:27.417Z,13.52
2023-03-05T20:35:57.537Z,12.88
2023-03-05T20:38:25.830Z,11.25
2023-03-05T20:40:55.159Z,11.23
2023-03-05T20:43:25.834Z,13.32
2023-03-05T20:45:54.855Z,11.88
2023-03-05T20:48:21.584Z,12.90
2023-03-05T20:50:48.295Z,12.10
2023-03-05T20:53:18.421Z,11.10
2023-03-05T20:55:46.322Z,10.65
2023-03-05T20:58:13.560Z,12.15
2023-03-05T21:00:43.908Z,10.93
2023-03-05T21:03:10.822Z,11.00
2023-03-05T21:05:37.800Z,10.90
2023-03-05T21:08:07.988Z,12.63
2023-03-05T21:10:34.733Z,13.10
2023-03-05T21:13:01.442Z,11.95
2023-03-05T21:15:30.236Z,11.45
2023-03-05T21:17:57.704Z,11.35
2023-03-05T21:20:28.259Z,11.30
2023-03-05T21:22:56.322Z,10.57
2023-03-05T21:25:27.470Z,10.48
2023-03-05T21:27:57.396Z,11.10
2023-03-05T21:30:43.555Z,9.93
2023-03-05T21:33:13.596Z,10.68
2023-03-05T21:35:47.056Z,11.80
2023-03-05T21:38:14.257Z,10.98
2023-03-05T21:40:45.390Z,10.70
2023-03-05T21:43:13.126Z,10.88
2023-03-05T21:45:40.368Z,13.10
2023-03-05T21:48:07.898Z,14.88
2023-03-05T21:50:35.446Z,12.73
2023-03-05T21:53:02.813Z,10.70
2023-03-05T21:55:46.373Z,9.85
2023-03-05T21:58:13.270Z,10.48
2023-03-05T22:00:39.931Z,11.77
2023-03-05T22:03:06.541Z,10.38
2023-03-05T22:05:33.308Z,9.98
2023-03-05T22:08:00.037Z,10.07
2023-03-05T22:10:26.855Z,9.38
2023-03-05T22:13:11.268Z,10.45
2023-03-05T22:15:50.589Z,9.93
2023-03-05T22:18:19.918Z,9.80
2023-03-05T22:20:47.030Z,9.73
2023-03-05T22:23:14.506Z,11.00
2023-03-05T22:25:42.039Z,10.10
2023-03-05T22:28:10.601Z,8.93
2023-03-05T22:30:43.144Z,10.07
2023-03-05T22:33:09.973Z,8.88
2023-03-05T22:35:39.985Z,9.75
2023-03-05T22:38:07.287Z,10.13
2023-03-05T22:40:34.243Z,10.70
2023-03-05T22:43:00.877Z,9.68
2023-03-05T22:45:30.466Z,9.55
2023-03-05T22:47:57.057Z,9.48
2023-03-05T22:50:24.322Z,10.13
2023-03-05T22:52:51.181Z,10.52
2023-03-05T22:55:18.021Z,9.90
2023-03-05T22:57:46.820Z,9.80
2023-03-05T23:00:17.237Z,9.93
2023-03-05T23:02:44.548Z,9.18
2023-03-05T23:05:11.704Z,9.13
2023-03-05T23:07:40.664Z,9.77
2023-03-05T23:10:12.241Z,11.52
2023-03-05T23:12:43.923Z,9.98
2023-03-05T23:15:16.678Z,9.63
2023-03-05T23:17:43.306Z,10.07
2023-03-05T23:20:14.413Z,9.13
2023-03-05T23:22:41.215Z,9.23
2023-03-05T23:25:08.395Z,9.82
2023-03-05T23:27:35.028Z,9.02
2023-03-05T23:30:34.531Z,10.25
2023-03-05T23:33:36.488Z,9.32
2023-03-05T23:36:03.417Z,9.43
2023-03-05T23:38:30.433Z,8.18
2023-03-05T23:41:01.061Z,9.93
2023-03-05T23:43:28.466Z,8.60
2023-03-05T23:45:55.332Z,8.50
2023-03-05T23:48:26.722Z,8.63
2023-03-05T23:50:54.120Z,8.60
2023-03-05T23:53:23.764Z,8.30
2023-03-05T23:55:50.956Z,8.70
2023-03-05T23:58:21.704Z,8.82
